Time;durP1;ratioP1;P1;durP2;ratioP2;P2;SDS_P1;SDS_P2;PMS_P1;PMS_P2;Temp;Humidity;BMP_temperature;BMP_pressure;BME280_temperature;BME280_humidity;BME280_pressure;Samples;Min_cycle;Max_cycle;Signal;HPM_P1;HPM_P2
2023/05/31 00:00:34;;;;;;;4.35;1.65;;;11.10;99.90;;;;;;4964162;28;20054;-69
2023/05/31 00:03:03;;;;;;;6.05;2.03;;;11.10;99.90;;;;;;4906789;28;20478;-71
2023/05/31 00:05:29;;;;;;;6.50;2.00;;;11.10;99.90;;;;;;4966463;28;20093;-70
2023/05/31 00:07:57;;;;;;;10.40;2.30;;;11.10;99.90;;;;;;4982247;28;20054;-71
2023/05/31 00:10:24;;;;;;;5.47;2.20;;;11.00;99.90;;;;;;4990893;28;20083;-71
2023/05/31 00:12:50;;;;;;;4.40;2.25;;;11.00;99.90;;;;;;4940443;28;20074;-70
2023/05/31 00:15:15;;;;;;;3.97;2.10;;;11.00;99.90;;;;;;4976796;28;20747;-68
2023/05/31 00:17:41;;;;;;;3.93;1.97;;;11.00;99.90;;;;;;4976718;28;20364;-69
2023/05/31 00:20:07;;;;;;;5.07;2.27;;;11.00;99.90;;;;;;4972785;28;20289;-69
2023/05/31 00:22:32;;;;;;;7.40;2.20;;;10.90;99.90;;;;;;4977136;28;20397;-70
2023/05/31 00:24:58;;;;;;;4.83;2.43;;;10.90;99.90;;;;;;4973345;28;20463;-69
2023/05/31 00:27:23;;;;;;;5.73;2.17;;;10.90;99.90;;;;;;4976069;28;20105;-70
2023/05/31 00:29:49;;;;;;;4.30;1.90;;;10.90;99.90;;;;;;4981032;28;20041;-70
2023/05/31 00:32:15;;;;;;;7.13;2.63;;;10.90;99.90;;;;;;4976984;28;20042;-69
2023/05/31 00:34:40;;;;;;;6.23;1.83;;;10.90;99.90;;;;;;4971209;28;20043;-69
2023/05/31 00:37:06;;;;;;;6.27;2.60;;;10.80;99.90;;;;;;4972183;28;20129;-70
2023/05/31 00:39:31;;;;;;;7.10;2.40;;;10.90;99.90;;;;;;4973544;28;20056;-70
2023/05/31 00:41:57;;;;;;;9.50;2.23;;;10.80;99.90;;;;;;4976314;28;20038;-70
2023/05/31 00:44:23;;;;;;;4.63;2.10;;;10.80;99.90;;;;;;4968521;28;20039;-69
2023/05/31 00:46:48;;;;;;;5.27;2.10;;;10.80;99.90;;;;;;4990954;28;20104;-70
2023/05/31 00:49:15;;;;;;;5.07;1.90;;;10.70;99.90;;;;;;4982911;28;20066;-69
2023/05/31 00:51:41;;;;;;;4.90;2.03;;;10.70;99.90;;;;;;4979882;28;20055;-70
2023/05/31 00:54:07;;;;;;;6.38;2.28;;;10.70;99.90;;;;;;4976273;28;20054;-70
2023/05/31 00:56:33;;;;;;;4.63;2.03;;;10.60;99.90;;;;;;5013380;22;20086;-69
2023/05/31 00:59:00;;;;;;;5.65;2.42;;;10.60;99.90;;;;;;4986522;28;20133;-70
2023/05/31 01:01:26;;;;;;;;;;;10.60;99.90;;;;;;4986112;28;20085;-69
2023/05/31 01:03:56;;;;;;;4.03;1.73;;;10.60;99.90;;;;;;4988874;28;20358;-70
2023/05/31 01:06:23;;;;;;;3.60;1.63;;;10.60;99.90;;;;;;4988767;28;20542;-70
2023/05/31 01:08:49;;;;;;;5.28;2.20;;;10.50;99.90;;;;;;4984133;28;20138;-69
2023/05/31 01:11:34;;;;;;;6.95;2.10;;;10.50;99.90;;;;;;4987207;28;20041;-70
2023/05/31 01:14:21;;;;;;;3.53;2.10;;;10.50;99.90;;;;;;5006190;28;20048;-69
2023/05/31 01:16:52;;;;;;;;;;;10.50;99.90;;;;;;4983107;28;20039;-68
2023/05/31 01:19:51;;;;;;;7.57;2.42;;;10.40;99.90;;;;;;4990280;28;20008;-68
2023/05/31 01:22:33;;;;;;;4.60;2.10;;;10.40;99.90;;;;;;4981842;28;20334;-68
2023/05/31 01:25:24;;;;;;;4.85;2.15;;;10.30;99.90;;;;;;4980238;28;20039;-69
2023/05/31 01:27:52;;;;;;;4.40;2.03;;;10.30;99.90;;;;;;4984361;28;20051;-69
2023/05/31 01:30:21;;;;;;;5.45;2.15;;;10.30;99.90;;;;;;4984594;28;20050;-68
2023/05/31 01:32:49;;;;;;;9.20;3.17;;;10.30;99.90;;;;;;4968378;28;20084;-68
2023/05/31 01:35:14;;;;;;;6.25;2.47;;;10.30;99.90;;;;;;4985267;28;20042;-68
2023/05/31 01:37:40;;;;;;;5.88;2.38;;;10.30;99.90;;;;;;4987821;28;20424;-68
2023/05/31 01:40:07;;;;;;;6.67;2.77;;;10.20;99.90;;;;;;4986516;28;20042;-68
2023/05/31 01:42:34;;;;;;;8.00;2.58;;;10.20;99.90;;;;;;4972469;28;20042;-69
2023/05/31 01:45:00;;;;;;;6.55;2.53;;;10.20;99.90;;;;;;4981832;28;20543;-69
2023/05/31 01:47:27;;;;;;;9.65;2.60;;;10.20;99.90;;;;;;4991209;28;20410;-68
2023/05/31 01:49:54;;;;;;;6.82;2.22;;;10.20;99.90;;;;;;4985307;28;20125;-68
2023/05/31 01:52:23;;;;;;;7.50;2.88;;;10.20;99.90;;;;;;5003088;28;20042;-69
2023/05/31 01:54:49;;;;;;;5.55;2.28;;;10.20;99.90;;;;;;4985280;28;20042;-69
2023/05/31 01:57:17;;;;;;;5.90;2.25;;;10.20;99.90;;;;;;4986613;28;20447;-68
2023/05/31 01:59:43;;;;;;;6.38;2.50;;;10.20;99.90;;;;;;4984563;28;20046;-68
2023/05/31 02:02:09;;;;;;;5.88;2.53;;;10.10;99.90;;;;;;4972795;28;20404;-68
2023/05/31 02:04:35;;;;;;;7.35;2.90;;;10.10;99.90;;;;;;4984513;28;20049;-69
2023/05/31 02:07:01;;;;;;;6.03;2.43;;;10.10;99.90;;;;;;4989808;28;20042;-67
2023/05/31 02:09:26;;;;;;;5.63;2.67;;;10.10;99.90;;;;;;4988242;28;20361;-68
2023/05/31 02:11:52;;;;;;;8.20;2.87;;;10.10;99.90;;;;;;4988611;28;20286;-68
2023/05/31 02:14:18;;;;;;;6.63;2.90;;;10.10;99.90;;;;;;4985766;28;20499;-68
2023/05/31 02:16:43;;;;;;;7.57;3.00;;;10.10;99.90;;;;;;4970395;28;20381;-73
2023/05/31 02:19:13;;;;;;;6.97;2.87;;;10.10;99.90;;;;;;4988314;28;20268;-71
2023/05/31 02:21:39;;;;;;;7.97;2.67;;;10.10;99.90;;;;;;4983802;28;20520;-69
2023/05/31 02:24:05;;;;;;;;;;;10.10;99.90;;;;;;4986345;28;20138;-68
2023/05/31 02:26:31;;;;;;;9.55;3.20;;;10.10;99.90;;;;;;4985089;28;20008;-68
2023/05/31 02:28:56;;;;;;;14.73;2.80;;;10.00;99.90;;;;;;4987948;28;20048;-68
2023/05/31 02:31:22;;;;;;;6.23;2.50;;;10.00;99.90;;;;;;4983236;28;20122;-68
2023/05/31 02:33:48;;;;;;;7.50;2.77;;;10.00;99.90;;;;;;4981775;28;20035;-68
2023/05/31 02:36:16;;;;;;;5.72;3.00;;;10.00;99.90;;;;;;4984546;28;20373;-68
2023/05/31 02:38:45;;;;;;;5.72;2.75;;;10.00;99.90;;;;;;4983091;28;20129;-68
2023/05/31 02:41:11;;;;;;;8.00;3.08;;;10.00;99.90;;;;;;4988903;28;20057;-69
2023/05/31 02:43:37;;;;;;;6.85;3.03;;;10.00;99.90;;;;;;4985643;28;20042;-69
2023/05/31 02:46:02;;;;;;;6.63;2.70;;;10.00;99.90;;;;;;4984996;28;20047;-68
2023/05/31 02:48:29;;;;;;;6.97;2.93;;;9.90;99.90;;;;;;4983749;28;20268;-68
2023/05/31 02:50:57;;;;;;;;;;;10.00;99.90;;;;;;4987374;28;20574;-68
2023/05/31 02:53:23;;;;;;;7.70;3.22;;;10.00;99.90;;;;;;4990023;28;19924;-69
2023/05/31 02:55:48;;;;;;;7.17;2.73;;;9.90;99.90;;;;;;4985338;28;20050;-69
2023/05/31 02:58:14;;;;;;;5.55;2.60;;;9.90;99.90;;;;;;4981445;28;20070;-68
2023/05/31 03:00:40;;;;;;;5.80;3.03;;;9.90;99.90;;;;;;4986970;28;20057;-68
2023/05/31 03:03:06;;;;;;;7.43;3.28;;;9.80;99.90;;;;;;4988253;28;20088;-69
2023/05/31 03:05:33;;;;;;;7.07;3.28;;;9.90;99.90;;;;;;4989927;28;20034;-68
2023/05/31 03:07:59;;;;;;;8.38;3.22;;;9.80;99.90;;;;;;4985409;28;20055;-69
2023/05/31 03:10:25;;;;;;;9.70;3.53;;;9.80;99.90;;;;;;4988371;28;20282;-69
2023/05/31 03:12:51;;;;;;;8.32;3.22;;;9.80;99.90;;;;;;4987458;28;20455;-68
2023/05/31 03:15:16;;;;;;;7.27;3.30;;;9.80;99.90;;;;;;4994603;28;20038;-69
2023/05/31 03:17:42;;;;;;;6.50;3.63;;;9.80;99.90;;;;;;4990964;28;20414;-68
2023/05/31 03:20:08;;;;;;;9.63;2.80;;;9.80;99.90;;;;;;4988585;28;20095;-69
2023/05/31 03:22:37;;;;;;;6.88;3.63;;;9.70;99.90;;;;;;5004447;28;20034;-69
2023/05/31 03:25:03;;;;;;;6.30;2.83;;;9.70;99.90;;;;;;4989260;28;20518;-69
2023/05/31 03:27:30;;;;;;;10.23;4.05;;;9.80;99.90;;;;;;4986548;28;20134;-69
2023/05/31 03:29:56;;;;;;;7.85;3.35;;;9.70;99.90;;;;;;4991550;28;20085;-68
2023/05/31 03:32:22;;;;;;;10.98;3.67;;;9.70;99.90;;;;;;4986095;28;20038;-68
2023/05/31 03:34:48;;;;;;;9.40;3.90;;;9.70;99.90;;;;;;4991459;28;20042;-68
2023/05/31 03:37:13;;;;;;;9.03;3.93;;;9.70;99.90;;;;;;4989715;28;20507;-68
2023/05/31 03:39:39;;;;;;;7.43;3.27;;;9.70;99.90;;;;;;4992911;28;20476;-69
2023/05/31 03:42:06;;;;;;;7.05;3.55;;;9.70;99.90;;;;;;4991863;28;20042;-68
2023/05/31 03:44:31;;;;;;;11.80;3.67;;;9.80;99.90;;;;;;4992882;28;20077;-68
2023/05/31 03:46:58;;;;;;;10.83;3.07;;;9.70;99.90;;;;;;4988829;28;20136;-68
2023/05/31 03:49:24;;;;;;;;;;;9.70;99.90;;;;;;4992677;28;20347;-68
2023/05/31 03:51:49;;;;;;;8.13;3.22;;;9.70;99.90;;;;;;4993503;28;20425;-69
2023/05/31 03:54:15;;;;;;;6.53;3.23;;;9.70;99.90;;;;;;4994849;28;20788;-68
2023/05/31 03:56:41;;;;;;;6.47;3.17;;;9.80;99.90;;;;;;4993401;28;20034;-68
2023/05/31 03:59:08;;;;;;;7.83;3.93;;;9.80;99.90;;;;;;4992224;28;20046;-68
2023/05/31 04:01:34;;;;;;;8.57;3.97;;;9.80;99.90;;;;;;4991029;28;20789;-68
2023/05/31 04:04:02;;;;;;;9.70;3.40;;;9.80;99.90;;;;;;4989856;28;20051;-68
2023/05/31 04:06:28;;;;;;;11.13;3.43;;;9.80;99.90;;;;;;4987370;28;20048;-68
2023/05/31 04:08:57;;;;;;;10.25;3.38;;;9.90;99.90;;;;;;4993092;28;20581;-68
2023/05/31 04:11:23;;;;;;;9.50;3.88;;;9.80;99.90;;;;;;4991334;28;20046;-68
2023/05/31 04:13:51;;;;;;;8.60;4.35;;;9.80;99.90;;;;;;4992907;28;20663;-69
2023/05/31 04:16:16;;;;;;;8.15;3.38;;;9.90;99.90;;;;;;4993517;28;20090;-69
2023/05/31 04:18:44;;;;;;;10.73;3.88;;;9.90;99.90;;;;;;4992320;28;20074;-68
2023/05/31 04:21:10;;;;;;;8.50;3.50;;;10.00;99.90;;;;;;4988826;28;20042;-68
2023/05/31 04:23:36;;;;;;;8.77;3.57;;;10.10;99.90;;;;;;4991552;28;20039;-67
2023/05/31 04:26:06;;;;;;;7.97;3.67;;;10.00;99.90;;;;;;4990513;28;20286;-70
2023/05/31 04:28:33;;;;;;;10.68;3.70;;;10.00;99.90;;;;;;4988707;28;20587;-69
2023/05/31 04:31:01;;;;;;;10.40;3.67;;;10.10;99.90;;;;;;4990626;28;20329;-68
2023/05/31 04:33:29;;;;;;;8.88;3.85;;;10.10;99.90;;;;;;4972482;28;20077;-68
2023/05/31 04:35:56;;;;;;;7.40;3.30;;;10.20;99.90;;;;;;4990294;28;20492;-68
2023/05/31 04:38:27;;;;;;;9.95;3.38;;;10.20;99.90;;;;;;4996569;28;20523;-68
2023/05/31 04:40:54;;;;;;;9.25;4.70;;;10.30;99.90;;;;;;4990654;28;20061;-68
2023/05/31 04:43:20;;;;;;;8.30;3.50;;;10.30;99.90;;;;;;4974584;28;20034;-68
2023/05/31 04:45:47;;;;;;;9.60;3.95;;;10.40;99.90;;;;;;4990467;28;20046;-68
2023/05/31 04:48:15;;;;;;;8.20;3.97;;;10.40;99.90;;;;;;4971881;28;20046;-68
2023/05/31 04:50:41;;;;;;;8.35;3.63;;;10.50;99.90;;;;;;4984449;28;20046;-67
2023/05/31 04:53:06;;;;;;;7.82;3.67;;;10.50;99.90;;;;;;4987791;28;20333;-69
2023/05/31 04:55:32;;;;;;;9.27;4.20;;;10.60;99.90;;;;;;4991227;28;20035;-69
2023/05/31 04:57:58;;;;;;;8.80;4.30;;;10.70;99.90;;;;;;4990259;28;20052;-68
2023/05/31 05:00:24;;;;;;;11.55;3.38;;;10.70;99.90;;;;;;4988009;28;20465;-69
2023/05/31 05:02:52;;;;;;;10.35;4.13;;;10.80;99.90;;;;;;4988245;28;20437;-68
2023/05/31 05:05:18;;;;;;;9.13;3.65;;;10.80;99.90;;;;;;4988756;28;20042;-69
2023/05/31 05:07:44;;;;;;;6.22;3.42;;;10.90;99.90;;;;;;4988110;28;20495;-68
2023/05/31 05:10:10;;;;;;;12.13;4.17;;;10.90;99.90;;;;;;4990188;28;20034;-68
2023/05/31 05:12:36;;;;;;;7.88;3.85;;;11.00;99.90;;;;;;4991137;28;20041;-69
2023/05/31 05:15:02;;;;;;;9.40;3.83;;;11.10;99.90;;;;;;4987799;28;20438;-69
2023/05/31 05:17:27;;;;;;;8.05;3.83;;;11.10;99.90;;;;;;4992111;28;20531;-70
2023/05/31 05:19:53;;;;;;;9.10;3.73;;;11.20;99.90;;;;;;4992248;28;20093;-68
2023/05/31 05:22:19;;;;;;;11.03;4.17;;;11.30;99.90;;;;;;4988866;28;20397;-69
2023/05/31 05:24:45;;;;;;;12.48;4.22;;;11.40;99.90;;;;;;4989942;28;20419;-68
2023/05/31 05:27:10;;;;;;;8.27;3.77;;;11.40;99.90;;;;;;4994806;28;20065;-68
2023/05/31 05:29:36;;;;;;;7.70;3.63;;;11.50;99.90;;;;;;4987442;28;20334;-69
2023/05/31 05:32:02;;;;;;;9.88;4.00;;;11.60;99.90;;;;;;4988660;28;20035;-69
2023/05/31 05:34:27;;;;;;;7.90;3.63;;;11.70;99.90;;;;;;4987819;28;20054;-68
2023/05/31 05:36:53;;;;;;;10.50;4.10;;;11.70;99.90;;;;;;4988701;28;20269;-68
2023/05/31 05:39:19;;;;;;;13.07;3.83;;;11.80;99.90;;;;;;4991022;28;20319;-68
2023/05/31 05:41:45;;;;;;;12.48;4.28;;;11.90;99.90;;;;;;4986061;28;20125;-69
2023/05/31 05:44:10;;;;;;;9.33;4.17;;;12.00;99.90;;;;;;4986781;28;20042;-69
2023/05/31 05:46:39;;;;;;;11.55;4.10;;;12.10;99.90;;;;;;4986266;28;20200;-69
2023/05/31 05:49:04;;;;;;;11.88;3.90;;;12.20;99.90;;;;;;4992605;28;20065;-68
2023/05/31 05:51:31;;;;;;;12.38;4.03;;;12.30;99.90;;;;;;4988913;28;20368;-70
2023/05/31 05:53:56;;;;;;;10.63;4.25;;;12.30;99.90;;;;;;4989670;28;20046;-70
2023/05/31 05:56:22;;;;;;;11.20;4.10;;;12.40;99.90;;;;;;4983472;28;20737;-69
2023/05/31 05:58:48;;;;;;;14.90;4.17;;;12.50;99.90;;;;;;4987482;28;20303;-69
2023/05/31 06:01:18;;;;;;;8.80;3.63;;;12.50;99.90;;;;;;4982568;28;20276;-69
2023/05/31 06:03:50;;;;;;;9.98;4.20;;;12.70;99.90;;;;;;4986952;28;20108;-69
2023/05/31 06:06:16;;;;;;;12.40;4.07;;;12.60;99.90;;;;;;4988903;28;20042;-70
2023/05/31 06:08:46;;;;;;;12.75;4.00;;;12.70;99.90;;;;;;4986646;28;20121;-73
2023/05/31 06:11:18;;;;;;;9.55;4.28;;;12.80;99.90;;;;;;5003301;28;20534;-70
2023/05/31 06:13:46;;;;;;;10.25;4.30;;;12.80;99.90;;;;;;4982832;28;20048;-69
2023/05/31 06:16:14;;;;;;;7.88;3.50;;;13.00;99.90;;;;;;4986587;28;20233;-68
2023/05/31 06:18:40;;;;;;;10.80;4.25;;;13.00;99.90;;;;;;4980678;28;20132;-69
2023/05/31 06:21:08;;;;;;;10.10;4.47;;;13.10;99.90;;;;;;4988487;28;20060;-69
2023/05/31 06:23:35;;;;;;;13.75;4.18;;;13.20;99.90;;;;;;4990218;28;20030;-68
2023/05/31 06:26:00;;;;;;;11.27;4.70;;;13.20;99.90;;;;;;4987170;28;20520;-68
2023/05/31 06:28:26;;;;;;;10.95;4.43;;;13.30;99.90;;;;;;4993529;28;20328;-69
2023/05/31 06:30:52;;;;;;;8.20;4.30;;;13.40;99.90;;;;;;4987616;28;20164;-68
2023/05/31 06:33:18;;;;;;;10.25;4.53;;;13.40;99.90;;;;;;4986324;28;20641;-69
2023/05/31 06:35:46;;;;;;;9.82;4.50;;;13.50;99.90;;;;;;4988837;28;20042;-68
2023/05/31 06:38:16;;;;;;;10.70;4.43;;;13.60;99.90;;;;;;4971092;28;20038;-69
2023/05/31 06:40:43;;;;;;;13.02;5.60;;;13.60;99.90;;;;;;4986541;28;20488;-69
2023/05/31 06:43:09;;;;;;;9.13;4.47;;;13.70;99.90;;;;;;4983790;28;20049;-72
2023/05/31 06:45:35;;;;;;;9.70;4.07;;;13.80;99.90;;;;;;4984262;28;20038;-69
2023/05/31 06:48:03;;;;;;;10.10;4.32;;;13.90;99.90;;;;;;4982526;28;20050;-69
2023/05/31 06:50:29;;;;;;;7.35;3.92;;;13.90;99.90;;;;;;4983981;28;20126;-68
2023/05/31 06:52:55;;;;;;;6.55;3.28;;;14.00;99.90;;;;;;4988366;28;20058;-68
2023/05/31 06:55:21;;;;;;;10.38;3.90;;;14.10;99.90;;;;;;5006460;23;20042;-84
2023/05/31 06:57:49;;;;;;;9.18;3.88;;;14.20;99.90;;;;;;4985256;28;20054;-83
2023/05/31 07:00:17;;;;;;;7.32;3.90;;;14.30;99.90;;;;;;4987990;28;20043;-85
2023/05/31 07:02:50;;;;;;;7.85;3.15;;;14.40;99.90;;;;;;4989761;28;20065;-85
2023/05/31 07:05:18;;;;;;;10.35;4.13;;;14.50;99.90;;;;;;4994131;28;20437;-86
2023/05/31 07:07:43;;;;;;;8.82;3.30;;;14.50;99.90;;;;;;4995614;28;20054;-85
2023/05/31 07:10:12;;;;;;;8.02;2.92;;;14.60;99.90;;;;;;4995358;28;20038;-85
2023/05/31 07:12:40;;;;;;;10.40;3.60;;;14.70;99.90;;;;;;4982229;28;20035;-86
2023/05/31 07:15:08;;;;;;;7.70;3.13;;;14.80;99.90;;;;;;5001211;28;20485;-86
2023/05/31 07:17:36;;;;;;;8.65;3.45;;;14.80;99.90;;;;;;4997057;28;20121;-84
2023/05/31 07:20:03;;;;;;;11.15;3.33;;;14.90;99.90;;;;;;4995314;28;20054;-85
2023/05/31 07:22:31;;;;;;;8.30;2.97;;;14.90;99.90;;;;;;4993016;28;20105;-85
2023/05/31 07:25:00;;;;;;;9.40;3.58;;;15.10;99.90;;;;;;4997257;28;20073;-84
2023/05/31 07:27:26;;;;;;;8.55;3.28;;;15.10;99.90;;;;;;4995339;28;20034;-84
2023/05/31 07:29:51;;;;;;;5.73;2.70;;;15.20;99.90;;;;;;4997950;28;20486;-84
2023/05/31 07:32:17;;;;;;;8.30;2.58;;;15.30;99.90;;;;;;4991747;28;20074;-85
2023/05/31 07:34:42;;;;;;;5.63;2.67;;;15.30;99.90;;;;;;4997762;28;20096;-86
2023/05/31 07:37:08;;;;;;;6.90;3.20;;;15.40;99.90;;;;;;4995839;28;20275;-84
2023/05/31 07:39:33;;;;;;;7.43;3.00;;;15.50;99.90;;;;;;5002652;28;20096;-86
2023/05/31 07:42:00;;;;;;;6.57;2.70;;;15.60;99.90;;;;;;4994286;28;20061;-85
2023/05/31 07:44:26;;;;;;;6.85;2.55;;;15.60;99.90;;;;;;4995671;28;20299;-85
2023/05/31 07:46:52;;;;;;;5.25;2.40;;;15.70;99.90;;;;;;4995929;28;20375;-85
2023/05/31 07:49:17;;;;;;;7.53;2.47;;;15.80;99.90;;;;;;4990833;28;20058;-85
2023/05/31 07:51:43;;;;;;;6.17;2.30;;;15.90;99.90;;;;;;4993682;28;20283;-85
2023/05/31 07:54:09;;;;;;;5.90;2.00;;;16.00;99.90;;;;;;4991830;28;20053;-84
2023/05/31 07:56:37;;;;;;;7.35;2.00;;;16.00;99.90;;;;;;4994590;28;20053;-86
2023/05/31 07:59:03;;;;;;;4.53;2.53;;;16.10;99.90;;;;;;4993162;28;20409;-85
2023/05/31 08:01:29;;;;;;;5.35;2.20;;;16.20;99.90;;;;;;4988892;28;20134;-87
2023/05/31 08:04:04;;;;;;;4.93;1.77;;;16.40;99.90;;;;;;4991387;28;20117;-84
2023/05/31 08:06:30;;;;;;;3.97;1.70;;;16.30;99.90;;;;;;4989921;28;20121;-86
2023/05/31 08:08:55;;;;;;;6.03;1.80;;;16.40;99.90;;;;;;4997349;28;20073;-85
2023/05/31 08:11:21;;;;;;;3.17;1.37;;;16.50;99.90;;;;;;5003225;28;20062;-83
2023/05/31 08:13:47;;;;;;;12.00;1.80;;;16.60;99.90;;;;;;4989310;28;20114;-85
2023/05/31 08:16:12;;;;;;;4.53;1.87;;;16.60;99.90;;;;;;4988101;28;20061;-86
2023/05/31 08:18:38;;;;;;;8.60;2.10;;;16.60;99.90;;;;;;4986760;28;20942;-85
2023/05/31 08:21:04;;;;;;;5.63;2.23;;;16.80;99.90;;;;;;4965873;28;20310;-85
2023/05/31 08:23:30;;;;;;;7.80;1.90;;;16.90;99.90;;;;;;4971702;28;20280;-85
2023/05/31 08:25:55;;;;;;;9.95;2.50;;;16.90;99.90;;;;;;4990196;28;20046;-85
2023/05/31 08:28:21;;;;;;;4.40;1.90;;;17.00;99.90;;;;;;4984562;28;20481;-85
2023/05/31 08:30:48;;;;;;;6.25;2.10;;;17.00;99.90;;;;;;4969295;28;20522;-86
2023/05/31 08:33:13;;;;;;;6.38;2.38;;;17.10;99.90;;;;;;4971054;28;20046;-84
2023/05/31 08:35:40;;;;;;;5.00;2.25;;;17.10;99.90;;;;;;4987748;28;20109;-85
2023/05/31 08:38:06;;;;;;;6.13;2.30;;;17.20;99.90;;;;;;4971351;28;20130;-85
2023/05/31 08:40:32;;;;;;;5.65;1.80;;;17.30;99.90;;;;;;4988426;28;20210;-86
2023/05/31 08:43:02;;;;;;;6.45;2.22;;;17.40;99.90;;;;;;4985062;28;20331;-85
2023/05/31 08:45:29;;;;;;;6.60;2.42;;;17.40;99.90;;;;;;4987002;28;20118;-86
2023/05/31 08:48:29;;;;;;;8.75;3.08;;;17.40;99.90;;;;;;4968840;28;20042;-86
2023/05/31 08:50:57;;;;;;;9.18;2.65;;;17.60;99.90;;;;;;4985923;28;20462;-85
2023/05/31 08:53:26;;;;;;;10.75;2.10;;;17.60;99.90;;;;;;4980861;28;20041;-85
2023/05/31 08:55:55;;;;;;;5.65;2.50;;;17.60;99.90;;;;;;4967593;28;20042;-85
2023/05/31 08:58:22;;;;;;;5.45;1.98;;;17.60;99.90;;;;;;4986052;28;20046;-85
2023/05/31 09:00:56;;;;;;;13.25;2.42;;;17.70;99.90;;;;;;4984042;28;20046;-85
2023/05/31 09:03:22;;;;;;;5.07;2.28;;;17.90;99.90;;;;;;4985905;28;20116;-85
2023/05/31 09:05:58;;;;;;;8.00;2.40;;;18.10;99.90;;;;;;4988885;28;20426;-85
2023/05/31 09:08:24;;;;;;;8.05;2.10;;;18.20;99.90;;;;;;4990607;28;20038;-85
2023/05/31 09:10:50;;;;;;;8.23;2.45;;;18.30;99.90;;;;;;4987075;28;20045;-86
2023/05/31 09:13:16;;;;;;;7.43;2.00;;;18.40;99.90;;;;;;4984054;28;20046;-85
2023/05/31 09:15:45;;;;;;;6.13;2.30;;;18.50;99.90;;;;;;4981926;28;20455;-88
2023/05/31 09:18:15;;;;;;;8.73;2.67;;;18.60;99.90;;;;;;4978876;28;20106;-86
2023/05/31 09:20:42;;;;;;;5.85;2.47;;;18.60;99.90;;;;;;4984758;28;20084;-86
2023/05/31 09:23:09;;;;;;;7.38;2.58;;;18.60;99.90;;;;;;4965984;28;20126;-87
2023/05/31 09:25:51;;;;;;;9.35;2.20;;;18.50;99.90;;;;;;4979882;28;20042;-86
2023/05/31 09:28:24;;;;;;;8.77;2.22;;;18.40;99.90;;;;;;4967771;28;20512;-86
2023/05/31 09:31:04;;;;;;;10.07;2.53;;;18.40;99.90;;;;;;4987620;28;20046;-85
2023/05/31 09:33:39;;;;;;;11.02;2.83;;;18.50;99.90;;;;;;4985049;28;20038;-86
2023/05/31 09:36:04;;;;;;;6.28;2.55;;;18.50;99.90;;;;;;4986046;28;20061;-86
2023/05/31 09:38:35;;;;;;;6.13;1.98;;;18.50;99.90;;;;;;4987017;28;20387;-86
2023/05/31 09:41:20;;;;;;;7.20;2.55;;;18.50;99.90;;;;;;4983760;28;20380;-86
2023/05/31 09:43:48;;;;;;;6.57;2.08;;;18.40;99.90;;;;;;4982692;28;20042;-86
2023/05/31 09:46:18;;;;;;;8.63;2.38;;;18.50;99.90;;;;;;4968292;28;20145;-85
2023/05/31 09:48:59;;;;;;;5.55;2.15;;;18.60;99.90;;;;;;4978807;28;20396;-84
2023/05/31 09:51:28;;;;;;;9.32;3.08;;;18.70;99.90;;;;;;4981721;28;20047;-86
2023/05/31 09:53:57;;;;;;;6.65;2.92;;;18.70;99.90;;;;;;4987040;28;20692;-86
2023/05/31 09:56:27;;;;;;;10.05;2.63;;;18.90;99.90;;;;;;4978917;28;20072;-86
2023/05/31 09:58:56;;;;;;;9.68;3.13;;;19.00;99.90;;;;;;4981813;28;20473;-86
2023/05/31 10:01:25;;;;;;;10.13;2.80;;;19.00;99.90;;;;;;4984861;28;20045;-87
2023/05/31 10:03:51;;;;;;;8.02;3.03;;;18.90;99.90;;;;;;4982483;28;20092;-86
2023/05/31 10:06:19;;;;;;;7.25;2.30;;;19.00;99.90;;;;;;4988935;28;20050;-85
2023/05/31 10:08:46;;;;;;;4.18;2.47;;;19.00;99.90;;;;;;4985837;28;20046;-86
2023/05/31 10:11:16;;;;;;;11.95;2.97;;;19.10;99.90;;;;;;4987682;28;20034;-87
2023/05/31 10:13:44;;;;;;;11.25;3.20;;;19.20;99.90;;;;;;4989279;28;20034;-86
2023/05/31 10:16:10;;;;;;;7.75;2.85;;;19.20;99.90;;;;;;4992508;28;20086;-86
2023/05/31 10:18:45;;;;;;;8.63;3.10;;;19.10;99.90;;;;;;4985511;28;20038;-86
2023/05/31 10:21:24;;;;;;;8.95;2.83;;;19.00;99.90;;;;;;4984380;28;20327;-87
2023/05/31 10:24:01;;;;;;;6.93;3.75;;;19.00;99.90;;;;;;4983466;28;20065;-85
2023/05/31 10:26:49;;;;;;;7.03;3.47;;;19.00;99.90;;;;;;4981791;28;20054;-88
2023/05/31 10:29:23;;;;;;;8.38;3.17;;;19.00;99.90;;;;;;4988427;28;20051;-85
2023/05/31 10:31:50;;;;;;;5.20;3.20;;;19.00;99.90;;;;;;4981805;28;20444;-84
2023/05/31 10:34:25;;;;;;;7.32;3.30;;;18.90;99.90;;;;;;4987296;28;20043;-82
2023/05/31 10:36:54;;;;;;;6.15;2.95;;;18.80;99.90;;;;;;4966721;28;20274;-83
2023/05/31 10:39:53;;;;;;;9.50;3.00;;;18.80;99.90;;;;;;4929705;28;20164;-86
2023/05/31 10:42:39;;;;;;;7.15;3.17;;;18.90;99.90;;;;;;4967449;28;20541;-87
2023/05/31 10:48:39;;;;;;;8.60;3.05;;;19.20;99.90;;;;;;5004818;23;20481;-67
2023/05/31 10:51:06;;;;;;;9.68;3.33;;;19.40;99.90;;;;;;4974162;28;20120;-68
2023/05/31 10:53:37;;;;;;;6.63;3.15;;;19.60;99.90;;;;;;4998746;28;20042;-68
2023/05/31 10:56:13;;;;;;;5.78;2.80;;;19.70;99.90;;;;;;4999858;28;20191;-67
2023/05/31 10:58:47;;;;;;;9.23;3.08;;;19.70;99.90;;;;;;4994517;28;20518;-67
2023/05/31 11:01:15;;;;;;;8.57;3.83;;;19.70;99.90;;;;;;5000349;28;20062;-68
2023/05/31 11:03:51;;;;;;;6.68;2.85;;;19.70;99.90;;;;;;5002173;28;20052;-68
2023/05/31 11:06:26;;;;;;;5.97;3.20;;;19.70;99.90;;;;;;4999264;28;20064;-68
2023/05/31 11:08:58;;;;;;;6.03;2.95;;;19.60;99.90;;;;;;4997022;28;20084;-68
2023/05/31 11:11:32;;;;;;;5.60;2.83;;;19.60;99.90;;;;;;4995980;28;20598;-67
2023/05/31 11:14:06;;;;;;;6.18;3.17;;;19.70;99.90;;;;;;4995336;28;20387;-68
2023/05/31 11:16:34;;;;;;;6.88;3.13;;;19.70;99.90;;;;;;5016691;28;20080;-67
2023/05/31 11:19:06;;;;;;;5.15;2.70;;;19.80;99.90;;;;;;4999203;28;20077;-68
2023/05/31 11:21:52;;;;;;;10.40;3.58;;;19.80;99.90;;;;;;5001719;28;20096;-68
2023/05/31 11:24:52;;;;;;;5.88;3.35;;;19.80;99.90;;;;;;5000585;28;20099;-68
2023/05/31 11:27:23;;;;;;;7.00;3.47;;;19.80;99.90;;;;;;4998312;28;20138;-67
2023/05/31 11:29:51;;;;;;;7.25;3.70;;;19.80;99.90;;;;;;4999334;28;20103;-66
2023/05/31 11:32:21;;;;;;;8.13;3.33;;;19.90;99.90;;;;;;4995794;28;20046;-66
2023/05/31 11:34:57;;;;;;;6.38;2.92;;;19.90;99.90;;;;;;4994671;28;20070;-66
2023/05/31 11:37:34;;;;;;;7.90;2.97;;;19.90;99.90;;;;;;4998222;28;20676;-67
2023/05/31 11:40:01;;;;;;;7.85;3.75;;;19.90;99.90;;;;;;4999015;28;20403;-67
2023/05/31 11:42:31;;;;;;;9.90;3.17;;;20.00;99.90;;;;;;5001378;28;20073;-66
2023/05/31 11:45:02;;;;;;;6.70;2.97;;;20.10;99.90;;;;;;4999913;28;20107;-66
2023/05/31 11:47:31;;;;;;;9.57;3.15;;;20.10;99.90;;;;;;4993922;28;20528;-67
2023/05/31 11:49:57;;;;;;;7.55;3.00;;;20.20;99.90;;;;;;5001522;28;20480;-67
2023/05/31 11:52:23;;;;;;;;;;;20.20;99.90;;;;;;4999524;28;20086;-66
2023/05/31 11:54:49;;;;;;;7.20;3.63;;;20.40;99.90;;;;;;5002608;28;19983;-66
2023/05/31 11:57:20;;;;;;;9.77;3.60;;;20.70;99.90;;;;;;5023540;28;20096;-66
2023/05/31 11:59:46;;;;;;;8.35;3.20;;;20.70;99.90;;;;;;5000669;28;20716;-67
2023/05/31 12:02:12;;;;;;;8.48;3.15;;;20.80;99.90;;;;;;5001646;28;20053;-66
2023/05/31 12:04:40;;;;;;;9.55;3.20;;;20.80;99.90;;;;;;5008339;28;20096;-66
2023/05/31 12:07:12;;;;;;;9.60;3.13;;;20.90;99.90;;;;;;5002692;28;20041;-66
2023/05/31 12:09:38;;;;;;;9.85;2.97;;;20.90;99.90;;;;;;5003706;28;20399;-66
2023/05/31 12:12:08;;;;;;;7.03;3.00;;;21.00;99.90;;;;;;5000363;28;20050;-67
2023/05/31 12:14:34;;;;;;;7.85;2.53;;;20.90;99.90;;;;;;5002030;28;20049;-67
2023/05/31 12:17:04;;;;;;;6.20;2.60;;;20.80;99.90;;;;;;5004079;28;20037;-66
2023/05/31 12:19:35;;;;;;;7.40;2.83;;;20.70;99.90;;;;;;5003601;28;20033;-66
2023/05/31 12:22:02;;;;;;;7.70;2.60;;;20.70;99.90;;;;;;5002180;28;20287;-66
2023/05/31 12:24:28;;;;;;;9.65;3.08;;;20.70;99.90;;;;;;4985227;28;20115;-67
2023/05/31 12:26:54;;;;;;;7.45;3.60;;;20.70;99.90;;;;;;5000092;28;20062;-69
2023/05/31 12:29:29;;;;;;;10.57;2.88;;;20.90;99.90;;;;;;5003866;28;20068;-67
2023/05/31 12:32:05;;;;;;;6.85;2.97;;;20.90;99.90;;;;;;5003109;28;20046;-66
2023/05/31 12:34:36;;;;;;;8.40;3.58;;;20.90;99.90;;;;;;5000618;28;20115;-67
2023/05/31 12:37:06;;;;;;;12.85;2.80;;;20.90;99.90;;;;;;5001566;28;20264;-67
2023/05/31 12:39:33;;;;;;;6.47;2.38;;;20.90;99.90;;;;;;5001355;28;20045;-69
2023/05/31 12:42:00;;;;;;;6.78;3.00;;;20.90;99.90;;;;;;5003079;28;20129;-67
2023/05/31 12:44:27;;;;;;;7.07;2.78;;;20.90;99.90;;;;;;5004606;28;20159;-66
2023/05/31 12:47:07;;;;;;;5.72;2.42;;;21.00;99.90;;;;;;5018373;28;20121;-66
2023/05/31 12:49:34;;;;;;;4.68;1.90;;;21.20;99.90;;;;;;4985167;28;20047;-66
2023/05/31 12:52:04;;;;;;;3.60;1.95;;;21.30;99.90;;;;;;5003133;28;20058;-66
2023/05/31 12:54:39;;;;;;;5.28;2.28;;;21.40;99.90;;;;;;4998989;28;20037;-66
2023/05/31 12:59:33;;;;;;;8.68;2.65;;;21.50;99.90;;;;;;4947004;28;20078;-70